createdAt,value
2022-09-09T00:00:50.444Z,0.70
2022-09-09T00:03:20.849Z,0.68
2022-09-09T00:05:58.736Z,0.70
2022-09-09T00:08:31.896Z,0.70
2022-09-09T00:11:03.990Z,0.60
2022-09-09T00:13:35.199Z,0.55
2022-09-09T00:16:07.033Z,0.60
2022-09-09T00:18:41.007Z,0.60
2022-09-09T00:21:14.057Z,0.65
2022-09-09T00:23:46.306Z,0.70
2022-09-09T00:26:19.231Z,0.50
2022-09-09T00:28:51.665Z,0.50
2022-09-09T00:31:23.585Z,0.60
2022-09-09T00:33:52.563Z,0.55
2022-09-09T00:36:26.282Z,0.70
2022-09-09T00:38:58.214Z,0.70
2022-09-09T00:41:33.090Z,0.70
2022-09-09T00:44:03.949Z,0.80
2022-09-09T00:46:49.285Z,0.65
2022-09-09T00:49:22.201Z,0.60
2022-09-09T00:51:58.642Z,0.60
2022-09-09T00:54:33.480Z,0.70
2022-09-09T00:57:07.001Z,0.75
2022-09-09T00:59:38.325Z,0.63
2022-09-09T01:02:10.721Z,0.60
2022-09-09T01:04:39.578Z,0.60
2022-09-09T01:07:14.757Z,0.65
2022-09-09T01:09:48.860Z,0.50
2022-09-09T01:12:17.941Z,0.55
2022-09-09T01:14:48.859Z,0.60
2022-09-09T01:17:18.420Z,0.60
2022-09-09T01:19:55.551Z,0.80
2022-09-09T01:22:35.641Z,0.70
2022-09-09T01:25:37.037Z,0.60
2022-09-09T01:28:10.865Z,0.70
2022-09-09T01:30:41.075Z,0.80
2022-09-09T01:33:12.524Z,0.60
2022-09-09T01:35:43.107Z,0.55
2022-09-09T01:38:12.003Z,0.60
2022-09-09T01:40:40.785Z,0.60
2022-09-09T01:43:10.617Z,0.55
2022-09-09T01:45:39.600Z,0.80
2022-09-09T01:48:08.013Z,0.60
2022-09-09T01:50:36.461Z,0.70
2022-09-09T01:53:05.673Z,0.70
2022-09-09T01:55:36.465Z,0.50
2022-09-09T01:58:13.196Z,0.40
2022-09-09T02:00:46.880Z,0.73
2022-09-09T02:03:20.568Z,0.70
2022-09-09T02:05:53.217Z,0.70
2022-09-09T02:08:23.908Z,0.75
2022-09-09T02:10:56.718Z,0.70
2022-09-09T02:13:25.197Z,0.77
2022-09-09T02:15:56.022Z,0.60
2022-09-09T02:18:27.038Z,0.57
2022-09-09T02:20:56.295Z,0.52
2022-09-09T02:23:24.822Z,0.57
2022-09-09T02:25:54.347Z,0.60
2022-09-09T02:28:25.112Z,0.80
2022-09-09T02:30:56.208Z,0.60
2022-09-09T02:33:26.245Z,0.80
2022-09-09T02:35:57.386Z,0.90
2022-09-09T02:38:29.724Z,0.70
2022-09-09T02:40:59.396Z,0.80
2022-09-09T02:43:28.183Z,0.70
2022-09-09T02:46:05.823Z,0.70
2022-09-09T02:48:39.362Z,0.80
2022-09-09T02:51:12.038Z,0.80
2022-09-09T02:53:45.324Z,0.85
2022-09-09T02:56:16.637Z,0.90
2022-09-09T02:58:45.317Z,0.70
2022-09-09T03:01:15.282Z,0.60
2022-09-09T03:03:45.239Z,0.70
2022-09-09T03:06:13.942Z,0.70
2022-09-09T03:08:49.227Z,0.90
2022-09-09T03:11:18.110Z,0.90
2022-09-09T03:13:46.537Z,0.73
2022-09-09T03:16:16.716Z,0.88
2022-09-09T03:18:46.986Z,0.70
2022-09-09T03:21:15.818Z,0.68
2022-09-09T03:23:45.946Z,0.93
2022-09-09T03:26:16.065Z,0.75
2022-09-09T03:28:45.693Z,0.80
2022-09-09T03:31:14.157Z,1.15
2022-09-09T03:33:44.012Z,1.00
2022-09-09T03:36:12.429Z,0.75
2022-09-09T03:38:40.989Z,0.93
2022-09-09T03:41:09.869Z,0.80
2022-09-09T03:43:38.716Z,0.80
2022-09-09T03:46:07.334Z,0.80
2022-09-09T03:48:35.926Z,0.80
2022-09-09T03:51:05.930Z,0.70
2022-09-09T03:53:35.343Z,1.00
2022-09-09T03:56:04.267Z,0.70
2022-09-09T03:58:32.716Z,0.88
2022-09-09T04:01:01.851Z,1.02
2022-09-09T04:03:30.841Z,0.60
2022-09-09T04:05:59.974Z,0.60
2022-09-09T04:08:31.020Z,0.70
2022-09-09T04:10:59.448Z,0.80
2022-09-09T04:13:28.201Z,0.95
2022-09-09T04:15:56.980Z,0.77
2022-09-09T04:18:25.800Z,0.90
2022-09-09T04:20:54.905Z,0.90
2022-09-09T04:23:25.065Z,1.00
2022-09-09T04:25:55.753Z,0.70
2022-09-09T04:28:25.233Z,0.82
2022-09-09T04:30:54.371Z,1.10
2022-09-09T04:33:22.951Z,0.80
2022-09-09T04:35:52.360Z,0.90
2022-09-09T04:38:20.781Z,0.70
2022-09-09T04:40:49.842Z,0.70
2022-09-09T04:43:20.074Z,0.70
2022-09-09T04:45:50.122Z,0.80
2022-09-09T04:48:18.715Z,0.93
2022-09-09T04:50:47.273Z,0.60
2022-09-09T04:53:15.659Z,0.60
2022-09-09T04:55:44.065Z,1.13
2022-09-09T04:58:12.479Z,0.75
2022-09-09T05:00:43.439Z,1.13
2022-09-09T05:03:13.693Z,0.80
2022-09-09T05:05:42.086Z,1.08
2022-09-09T05:08:11.815Z,1.02
2022-09-09T05:10:42.899Z,0.70
2022-09-09T05:13:12.381Z,0.70
2022-09-09T05:15:44.208Z,1.25
2022-09-09T05:18:12.645Z,1.10
2022-09-09T05:20:41.036Z,0.80
2022-09-09T05:23:10.765Z,0.80
2022-09-09T05:25:39.186Z,0.77
2022-09-09T05:28:08.923Z,1.00
2022-09-09T05:30:37.343Z,0.60
2022-09-09T05:33:07.677Z,1.00
2022-09-09T05:35:36.103Z,0.70
2022-09-09T05:38:04.584Z,0.50
2022-09-09T05:40:33.065Z,0.70
2022-09-09T05:43:03.989Z,0.77
2022-09-09T05:45:32.444Z,0.70
2022-09-09T05:48:01.129Z,0.57
2022-09-09T05:50:31.660Z,0.95
2022-09-09T05:53:00.197Z,0.60
2022-09-09T05:55:28.733Z,0.80
2022-09-09T05:57:57.233Z,0.70
2022-09-09T06:00:26.074Z,1.10
2022-09-09T06:02:54.721Z,3.40
2022-09-09T06:05:23.872Z,0.82
2022-09-09T06:07:56.711Z,0.60
2022-09-09T06:10:25.962Z,0.60
2022-09-09T06:12:55.862Z,0.85
2022-09-09T06:15:24.297Z,0.57
2022-09-09T06:17:57.307Z,0.65
2022-09-09T06:20:25.790Z,0.70
2022-09-09T06:22:54.218Z,0.55
2022-09-09T06:25:25.377Z,0.70
2022-09-09T06:27:53.781Z,0.73
2022-09-09T06:30:22.192Z,0.68
2022-09-09T06:32:50.896Z,0.70
2022-09-09T06:35:19.298Z,0.90
2022-09-09T06:37:49.833Z,0.77
2022-09-09T06:40:18.495Z,0.80
2022-09-09T06:42:49.212Z,0.82
2022-09-09T06:45:17.865Z,0.47
2022-09-09T06:47:46.621Z,0.60
2022-09-09T06:50:15.946Z,0.70
2022-09-09T06:52:44.352Z,0.60
2022-09-09T06:55:14.120Z,0.70
2022-09-09T06:57:42.537Z,0.80
2022-09-09T07:00:15.152Z,0.73
2022-09-09T07:02:43.608Z,0.70
2022-09-09T07:05:12.132Z,1.00
2022-09-09T07:07:40.564Z,0.90
2022-09-09T07:10:09.612Z,0.70
2022-09-09T07:12:38.566Z,0.80
2022-09-09T07:15:07.535Z,0.70
2022-09-09T07:17:37.352Z,0.75
2022-09-09T07:20:06.144Z,0.68
2022-09-09T07:22:34.630Z,0.80
2022-09-09T07:25:03.244Z,0.80
2022-09-09T07:27:31.797Z,0.70
2022-09-09T07:30:00.280Z,0.50
2022-09-09T07:32:28.716Z,0.75
2022-09-09T07:34:59.281Z,0.80
2022-09-09T07:37:27.697Z,0.70
2022-09-09T07:39:56.268Z,0.75
2022-09-09T07:42:24.744Z,0.65
2022-09-09T07:44:55.897Z,0.80
2022-09-09T07:47:25.827Z,0.70
2022-09-09T07:49:54.240Z,0.80
2022-09-09T07:52:24.264Z,0.90
2022-09-09T07:54:53.390Z,0.98
2022-09-09T07:57:22.488Z,0.90
2022-09-09T07:59:51.645Z,0.80
2022-09-09T08:02:20.090Z,0.70
2022-09-09T08:04:48.476Z,0.85
2022-09-09T08:07:17.115Z,0.60
2022-09-09T08:09:47.702Z,0.80
2022-09-09T08:12:16.362Z,0.75
2022-09-09T08:14:44.833Z,0.70
2022-09-09T08:17:13.241Z,0.65
2022-09-09T08:19:41.749Z,0.70
2022-09-09T08:22:10.294Z,1.00
2022-09-09T08:24:38.816Z,0.80
2022-09-09T08:27:08.621Z,0.93
2022-09-09T08:29:38.884Z,0.65
2022-09-09T08:32:07.347Z,0.77
2022-09-09T08:34:35.753Z,0.80
2022-09-09T08:37:04.164Z,0.60
2022-09-09T08:39:33.437Z,0.60
2022-09-09T08:42:16.749Z,0.60
2022-09-09T08:44:52.413Z,0.73
2022-09-09T08:47:24.830Z,0.75
2022-09-09T08:50:05.701Z,0.75
2022-09-09T08:52:39.208Z,0.80
2022-09-09T08:55:15.358Z,0.70
2022-09-09T08:57:46.859Z,0.88
2022-09-09T09:00:17.098Z,0.80
2022-09-09T09:02:47.260Z,0.70
2022-09-09T09:05:21.163Z,0.70
2022-09-09T09:07:56.139Z,0.88
2022-09-09T09:10:48.575Z,0.77
2022-09-09T09:13:18.332Z,0.93
2022-09-09T09:15:50.180Z,0.60
2022-09-09T09:18:19.793Z,0.60
2022-09-09T09:20:53.967Z,0.80
2022-09-09T09:23:24.540Z,0.70
2022-09-09T09:25:55.238Z,0.68
2022-09-09T09:28:26.364Z,0.90
2022-09-09T09:30:58.878Z,0.80
2022-09-09T09:33:29.512Z,0.82
2022-09-09T09:35:57.973Z,0.77
2022-09-09T09:41:19.389Z,0.80
2022-09-09T09:43:56.294Z,0.70
2022-09-09T09:46:28.393Z,0.80
2022-09-09T09:49:00.888Z,0.90
2022-09-09T09:51:29.724Z,1.00
2022-09-09T09:54:06.766Z,0.80
2022-09-09T09:56:35.189Z,0.80
2022-09-09T09:59:09.315Z,0.80
2022-09-09T10:01:47.828Z,0.70
2022-09-09T10:04:19.388Z,0.75
2022-09-09T10:06:47.878Z,1.00
2022-09-09T10:09:26.339Z,0.90
2022-09-09T10:11:59.115Z,0.85
2022-09-09T10:14:30.969Z,0.80
2022-09-09T10:17:09.453Z,0.77
2022-09-09T10:19:38.684Z,0.68
2022-09-09T10:22:25.004Z,0.70
2022-09-09T10:25:14.214Z,0.90
2022-09-09T10:27:48.022Z,0.82
2022-09-09T10:30:20.108Z,1.13
2022-09-09T10:32:53.095Z,1.00
2022-09-09T10:35:27.487Z,0.88
2022-09-09T10:38:16.622Z,0.90
2022-09-09T10:40:46.896Z,1.00
2022-09-09T10:43:23.261Z,0.90
2022-09-09T10:45:57.963Z,0.90
2022-09-09T10:48:33.464Z,0.90
2022-09-09T10:51:09.601Z,0.80
2022-09-09T10:53:39.760Z,0.77
2022-09-09T10:56:10.211Z,1.10
2022-09-09T10:58:41.485Z,1.02
2022-09-09T11:01:13.566Z,1.05
2022-09-09T11:03:43.901Z,0.70
2022-09-09T11:06:16.687Z,0.90
2022-09-09T11:08:45.169Z,0.80
2022-09-09T11:11:15.640Z,0.90
2022-09-09T11:13:48.457Z,0.85
2022-09-09T11:16:22.386Z,0.75
2022-09-09T11:18:52.392Z,0.90
2022-09-09T11:21:24.082Z,0.88
2022-09-09T11:23:55.767Z,0.90
2022-09-09T11:26:32.317Z,0.85
2022-09-09T11:29:07.501Z,0.90
2022-09-09T11:31:46.846Z,1.00
2022-09-09T11:34:26.110Z,0.98
2022-09-09T11:37:11.000Z,0.80
2022-09-09T11:40:06.423Z,1.00
2022-09-09T11:42:34.951Z,0.95
2022-09-09T11:45:12.170Z,0.90
2022-09-09T11:47:40.673Z,1.02
2022-09-09T11:50:31.452Z,0.90
2022-09-09T11:53:08.366Z,0.90
2022-09-09T11:55:37.931Z,0.98
2022-09-09T11:58:07.485Z,1.00
2022-09-09T12:00:38.059Z,0.90
2022-09-09T12:03:06.918Z,0.85
2022-09-09T12:05:41.086Z,1.00
2022-09-09T12:08:12.390Z,0.90
2022-09-09T12:10:42.248Z,1.00
2022-09-09T12:13:11.430Z,1.10
2022-09-09T12:15:50.629Z,1.10
2022-09-09T12:18:24.675Z,1.10
2022-09-09T12:21:00.518Z,1.17
2022-09-09T12:23:33.944Z,1.10
2022-09-09T12:26:20.660Z,0.98
2022-09-09T12:28:55.238Z,0.90
2022-09-09T12:31:26.852Z,0.95
2022-09-09T12:33:55.332Z,1.10
2022-09-09T12:36:27.604Z,0.90
2022-09-09T12:38:56.199Z,1.02
2022-09-09T12:41:25.367Z,1.00
2022-09-09T12:43:54.036Z,1.00
2022-09-09T12:46:27.304Z,1.20
2022-09-09T12:48:56.764Z,1.77
2022-09-09T12:51:29.277Z,1.25
2022-09-09T12:53:58.449Z,1.15
2022-09-09T12:56:28.597Z,1.35
2022-09-09T12:58:58.050Z,1.02
2022-09-09T13:01:27.473Z,1.27
2022-09-09T13:03:56.241Z,0.95
2022-09-09T13:06:28.840Z,1.05
2022-09-09T13:09:00.707Z,1.00
2022-09-09T13:11:30.439Z,1.20
2022-09-09T13:13:59.730Z,1.20
2022-09-09T13:16:32.865Z,1.42
2022-09-09T13:19:03.301Z,1.25
2022-09-09T13:21:35.988Z,1.00
2022-09-09T13:24:08.593Z,1.20
2022-09-09T13:26:39.581Z,1.10
2022-09-09T13:29:19.054Z,1.42
2022-09-09T13:31:47.951Z,1.10
2022-09-09T13:34:17.105Z,1.17
2022-09-09T13:36:51.120Z,1.13
2022-09-09T13:39:21.367Z,1.42
2022-09-09T13:41:50.690Z,1.20
2022-09-09T13:44:22.110Z,1.20
2022-09-09T13:46:50.568Z,1.20
2022-09-09T13:49:23.704Z,0.90
2022-09-09T13:51:54.978Z,1.20
2022-09-09T13:54:24.984Z,1.25
2022-09-09T13:56:53.425Z,0.90
2022-09-09T13:59:22.713Z,1.13
2022-09-09T14:01:53.381Z,1.05
2022-09-09T14:04:22.793Z,1.10
2022-09-09T14:06:52.078Z,1.30
2022-09-09T14:09:20.888Z,1.10
2022-09-09T14:11:50.667Z,1.20
2022-09-09T14:14:19.110Z,1.13
2022-09-09T14:16:47.886Z,0.98
2022-09-09T14:19:16.387Z,1.13
2022-09-09T14:21:44.886Z,1.10
2022-09-09T14:24:13.337Z,1.30
2022-09-09T14:26:41.835Z,1.35
2022-09-09T14:29:11.730Z,1.13
2022-09-09T14:31:40.498Z,0.88
2022-09-09T14:34:08.917Z,1.27
2022-09-09T14:36:37.659Z,1.02
2022-09-09T14:39:06.789Z,1.35
2022-09-09T14:41:35.223Z,1.00
2022-09-09T14:44:03.779Z,1.08
2022-09-09T14:46:34.504Z,1.20
2022-09-09T14:49:03.167Z,1.20
2022-09-09T14:51:31.846Z,1.00
2022-09-09T14:54:03.041Z,1.30
2022-09-09T14:56:32.691Z,1.20
2022-09-09T14:59:03.024Z,1.08
2022-09-09T15:01:33.600Z,0.90
2022-09-09T15:04:02.714Z,1.00
2022-09-09T15:06:34.054Z,1.08
2022-09-09T15:09:02.564Z,1.10
2022-09-09T15:11:33.090Z,1.15
2022-09-09T15:14:01.816Z,1.48
2022-09-09T15:16:30.948Z,1.20
2022-09-09T15:19:01.711Z,1.30
2022-09-09T15:21:31.556Z,1.00
2022-09-09T15:24:00.621Z,1.10
2022-09-09T15:26:30.961Z,1.20
2022-09-09T15:29:00.144Z,1.00
2022-09-09T15:31:31.198Z,1.10
2022-09-09T15:34:02.582Z,1.40
2022-09-09T15:36:33.139Z,1.02
2022-09-09T15:39:01.755Z,0.90
2022-09-09T15:41:30.969Z,1.13
2022-09-09T15:43:59.835Z,1.00
2022-09-09T15:46:30.515Z,1.20
2022-09-09T15:49:00.064Z,1.10
2022-09-09T15:51:45.386Z,1.10
2022-09-09T15:54:14.797Z,1.10
2022-09-09T15:56:43.565Z,1.20
2022-09-09T15:59:12.442Z,1.30
2022-09-09T16:01:41.836Z,1.20
2022-09-09T16:04:10.797Z,1.10
2022-09-09T16:06:41.049Z,0.85
2022-09-09T16:09:11.134Z,1.60
2022-09-09T16:11:40.736Z,1.23
2022-09-09T16:14:09.296Z,1.05
2022-09-09T16:16:37.911Z,1.13
2022-09-09T16:19:07.465Z,1.00
2022-09-09T16:21:36.944Z,1.30
2022-09-09T16:24:07.066Z,1.20
2022-09-09T16:26:36.491Z,1.10
2022-09-09T16:29:05.423Z,1.15
2022-09-09T16:31:34.205Z,1.02
2022-09-09T16:34:04.508Z,1.17
2022-09-09T16:36:35.077Z,1.23
2022-09-09T16:39:04.150Z,1.00
2022-09-09T16:41:34.373Z,1.30
2022-09-09T16:44:04.021Z,0.95
2022-09-09T16:46:33.686Z,1.20
2022-09-09T16:49:02.672Z,1.40
2022-09-09T16:51:31.981Z,1.50
2022-09-09T16:54:01.288Z,1.30
2022-09-09T16:56:30.966Z,1.40
2022-09-09T16:59:01.659Z,1.13
2022-09-09T17:01:32.707Z,1.50
2022-09-09T17:04:02.877Z,1.55
2022-09-09T17:06:31.858Z,1.00
2022-09-09T17:09:02.356Z,1.25
2022-09-09T17:11:31.260Z,1.60
2022-09-09T17:14:01.589Z,1.52
2022-09-09T17:16:31.172Z,1.20
2022-09-09T17:19:02.123Z,1.10
2022-09-09T17:21:31.107Z,1.30
2022-09-09T17:23:59.786Z,1.30
2022-09-09T17:26:29.220Z,1.23
2022-09-09T17:28:59.885Z,1.45
2022-09-09T17:31:30.541Z,1.23
2022-09-09T17:34:00.030Z,1.70
2022-09-09T17:36:29.273Z,1.48
2022-09-09T17:38:58.047Z,1.95
2022-09-09T17:41:27.377Z,1.80
2022-09-09T17:43:56.084Z,1.40
2022-09-09T17:46:26.338Z,1.70
2022-09-09T17:48:58.440Z,1.70
2022-09-09T17:51:28.987Z,1.60
2022-09-09T17:53:59.320Z,1.52
2022-09-09T17:56:29.203Z,1.70
2022-09-09T17:58:58.265Z,1.52
2022-09-09T18:01:27.930Z,1.60
2022-09-09T18:03:58.592Z,1.33
2022-09-09T18:06:28.727Z,1.55
2022-09-09T18:08:58.548Z,1.42
2022-09-09T18:11:28.397Z,1.30
2022-09-09T18:13:58.279Z,1.20
2022-09-09T18:16:27.892Z,1.52
2022-09-09T18:18:58.806Z,1.60
2022-09-09T18:21:28.496Z,1.20
2022-09-09T18:23:57.217Z,1.60
2022-09-09T18:26:26.537Z,1.33
2022-09-09T18:28:56.716Z,1.50
2022-09-09T18:31:27.113Z,1.38
2022-09-09T18:33:57.240Z,1.80
2022-09-09T18:36:28.401Z,2.22
2022-09-09T18:38:59.440Z,2.00
2022-09-09T18:41:29.180Z,2.30
2022-09-09T18:43:59.378Z,1.85
2022-09-09T18:46:28.688Z,2.00
2022-09-09T18:48:57.262Z,1.85
2022-09-09T18:51:28.682Z,1.80
2022-09-09T18:53:57.908Z,1.85
2022-09-09T18:56:26.376Z,1.92
2022-09-09T18:58:55.827Z,1.48
2022-09-09T19:01:24.629Z,1.67
2022-09-09T19:03:53.332Z,1.90
2022-09-09T19:06:23.702Z,1.50
2022-09-09T19:08:56.821Z,1.70
2022-09-09T19:11:27.275Z,1.75
2022-09-09T19:13:58.159Z,1.60
2022-09-09T19:16:27.708Z,1.70
2022-09-09T19:18:56.112Z,1.60
2022-09-09T19:21:25.627Z,1.50
2022-09-09T19:23:59.936Z,1.60
2022-09-09T19:26:29.577Z,1.63
2022-09-09T19:28:59.462Z,1.70
2022-09-09T19:31:29.056Z,1.80
2022-09-09T19:33:57.918Z,1.55
2022-09-09T19:36:27.877Z,1.65
2022-09-09T19:38:57.817Z,1.65
2022-09-09T19:41:27.245Z,1.70
2022-09-09T19:44:01.134Z,1.60
2022-09-09T19:46:30.603Z,2.15
2022-09-09T19:49:01.185Z,1.85
2022-09-09T19:51:31.467Z,1.60
2022-09-09T19:54:03.913Z,1.88
2022-09-09T19:56:33.030Z,1.70
2022-09-09T19:59:01.708Z,1.75
2022-09-09T20:01:31.100Z,1.60
2022-09-09T20:04:01.310Z,2.35
2022-09-09T20:06:31.447Z,1.88
2022-09-09T20:09:01.301Z,1.30
2022-09-09T20:11:30.116Z,1.85
2022-09-09T20:13:58.677Z,1.67
2022-09-09T20:16:27.758Z,1.55
2022-09-09T20:18:57.371Z,1.70
2022-09-09T20:21:28.107Z,1.50
2022-09-09T20:23:57.069Z,1.60
2022-09-09T20:26:28.763Z,2.15
2022-09-09T20:28:57.368Z,1.80
2022-09-09T20:31:26.756Z,2.25
2022-09-09T20:33:55.949Z,3.80
2022-09-09T20:36:26.970Z,2.60
2022-09-09T20:38:57.929Z,1.83
2022-09-09T20:41:28.816Z,2.03
2022-09-09T20:43:57.860Z,1.50
2022-09-09T20:46:27.162Z,1.67
2022-09-09T20:48:59.686Z,1.73
2022-09-09T20:51:33.161Z,1.70
2022-09-09T20:54:03.898Z,1.85
2022-09-09T20:56:34.363Z,1.50
2022-09-09T20:59:02.969Z,1.63
2022-09-09T21:01:31.621Z,1.90
2022-09-09T21:04:00.666Z,1.67
2022-09-09T21:06:29.161Z,1.60
2022-09-09T21:08:57.573Z,1.83
2022-09-09T21:11:26.010Z,1.90
2022-09-09T21:13:56.358Z,1.80
2022-09-09T21:16:24.785Z,1.73
2022-09-09T21:18:53.206Z,1.63
2022-09-09T21:21:21.765Z,1.80
2022-09-09T21:23:50.413Z,1.75
2022-09-09T21:26:19.757Z,1.88
2022-09-09T21:28:48.190Z,1.80
2022-09-09T21:31:18.976Z,2.00
2022-09-09T21:33:47.645Z,1.90
2022-09-09T21:36:16.625Z,2.05
2022-09-09T21:38:45.292Z,2.00
2022-09-09T21:41:15.233Z,2.30
2022-09-09T21:43:46.811Z,2.05
2022-09-09T21:46:16.594Z,1.90
2022-09-09T21:48:46.581Z,1.90
2022-09-09T21:51:16.231Z,2.03
2022-09-09T21:53:44.879Z,2.10
2022-09-09T21:56:14.137Z,2.63
2022-09-09T21:58:42.896Z,1.88
2022-09-09T22:01:12.328Z,1.95
2022-09-09T22:03:42.500Z,1.98
2022-09-09T22:06:14.054Z,2.10
2022-09-09T22:08:42.791Z,1.92
2022-09-09T22:11:12.237Z,2.10
2022-09-09T22:13:40.865Z,1.98
2022-09-09T22:16:10.377Z,2.03
2022-09-09T22:18:39.008Z,2.08
2022-09-09T22:21:08.189Z,1.73
2022-09-09T22:23:37.990Z,1.90
2022-09-09T22:26:06.513Z,2.55
2022-09-09T22:28:35.012Z,2.10
2022-09-09T22:31:03.852Z,2.00
2022-09-09T22:33:32.313Z,1.83
2022-09-09T22:36:00.785Z,1.50
2022-09-09T22:38:29.447Z,1.92
2022-09-09T22:40:59.239Z,1.83
2022-09-09T22:43:27.629Z,1.70
2022-09-09T22:45:56.028Z,2.17
2022-09-09T22:48:24.647Z,2.05
2022-09-09T22:50:53.739Z,1.85
2022-09-09T22:53:22.149Z,1.52
2022-09-09T22:55:58.563Z,2.00
2022-09-09T22:58:29.140Z,1.70
2022-09-09T23:00:58.830Z,1.65
2022-09-09T23:03:27.325Z,1.70
2022-09-09T23:05:57.538Z,2.25
2022-09-09T23:08:26.736Z,1.88
2022-09-09T23:10:55.928Z,2.00
2022-09-09T23:13:25.616Z,1.73
2022-09-09T23:15:55.473Z,1.73
2022-09-09T23:18:25.175Z,2.03
2022-09-09T23:21:00.439Z,1.75
2022-09-09T23:23:29.022Z,2.30
2022-09-09T23:25:57.448Z,1.75
2022-09-09T23:28:26.832Z,2.03
2022-09-09T23:30:56.683Z,2.05
2022-09-09T23:33:25.178Z,3.40
2022-09-09T23:36:00.021Z,2.03
2022-09-09T23:38:28.715Z,2.70
2022-09-09T23:40:57.511Z,2.70
2022-09-09T23:43:26.705Z,2.78
2022-09-09T23:45:56.969Z,2.65
2022-09-09T23:48:28.169Z,3.10
2022-09-09T23:50:56.576Z,3.30
2022-09-09T23:53:25.016Z,3.28
2022-09-09T23:55:53.821Z,3.75
2022-09-09T23:58:22.255Z,3.70
